Time;durP1;ratioP1;P1;durP2;ratioP2;P2;SDS_P1;SDS_P2;PMS_P1;PMS_P2;Temp;Humidity;BMP_temperature;BMP_pressure;BME280_temperature;BME280_humidity;BME280_pressure;Samples;Min_cycle;Max_cycle;Signal;HPM_P1;HPM_P2
2022/11/06 00:01:29;;;;;;;8.70;2.73;;;-16.30;99.90;;;;;;5093695;28;20185;-71
2022/11/06 00:03:55;;;;;;;7.40;2.97;;;-14.90;99.90;;;;;;5090689;28;20207;-69
2022/11/06 00:09:09;;;;;;;14.50;3.50;;;-15.40;99.90;;;;;;5090429;28;20550;-74
2022/11/06 00:11:34;;;;;;;20.83;3.33;;;-14.90;99.90;;;;;;5096574;28;20170;-70
2022/11/06 00:14:01;;;;;;;6.20;2.70;;;-17.30;99.90;;;;;;5096479;28;20244;-68
2022/11/06 00:16:27;;;;;;;6.10;2.53;;;-16.50;99.90;;;;;;5091681;28;20569;-70
2022/11/06 00:18:54;;;;;;;4.13;2.80;;;-16.30;99.90;;;;;;5091009;28;20178;-70
2022/11/06 00:21:23;;;;;;;7.13;2.60;;;-16.10;99.90;;;;;;5090611;28;20179;-73
2022/11/06 00:23:51;;;;;;;5.80;2.17;;;-16.90;99.90;;;;;;5084549;28;20609;-70
2022/11/06 00:26:23;;;;;;;8.23;3.10;;;-17.40;99.90;;;;;;5089261;28;20182;-72
2022/11/06 00:28:49;;;;;;;6.30;2.60;;;-16.20;99.90;;;;;;5085410;28;20293;-71
2022/11/06 00:31:18;;;;;;;10.93;2.60;;;-15.50;99.90;;;;;;5095704;28;20186;-71
2022/11/06 00:33:44;;;;;;;10.10;2.67;;;-17.10;99.90;;;;;;5092531;28;20269;-71
2022/11/06 00:36:13;;;;;;;14.80;3.23;;;-16.10;99.90;;;;;;5084163;28;20179;-68
2022/11/06 00:38:39;;;;;;;6.43;3.23;;;-15.10;99.90;;;;;;5089910;28;20231;-71
2022/11/06 00:41:11;;;;;;;6.63;2.90;;;-16.70;99.90;;;;;;5089138;28;20186;-67
2022/11/06 00:43:37;;;;;;;6.47;2.90;;;-17.20;99.90;;;;;;5085491;28;20309;-68
2022/11/06 00:46:04;;;;;;;10.43;3.00;;;-17.50;99.90;;;;;;5085958;28;20253;-67
2022/11/06 00:48:30;;;;;;;7.87;2.97;;;-19.40;99.90;;;;;;5094378;28;20210;-68
2022/11/06 00:51:05;;;;;;;7.73;3.13;;;-17.50;99.90;;;;;;5088714;28;20179;-72
2022/11/06 00:53:30;;;;;;;8.73;4.17;;;-17.20;99.90;;;;;;5095302;28;20318;-71
2022/11/06 00:56:17;;;;;;;8.80;3.10;;;-17.20;99.90;;;;;;5079671;28;20262;-70
2022/11/06 00:58:44;;;;;;;7.17;2.90;;;-18.20;99.90;;;;;;5088164;28;20201;-70
2022/11/06 01:01:19;;;;;;;9.53;3.00;;;-18.90;99.90;;;;;;5094455;28;20187;-68
2022/11/06 01:03:53;;;;;;;6.07;2.40;;;-17.10;99.90;;;;;;5090037;28;20201;-68
2022/11/06 01:06:22;;;;;;;7.53;2.97;;;-15.50;99.90;;;;;;5091345;28;20262;-67
2022/11/06 01:08:48;;;;;;;10.00;3.10;;;-15.60;99.90;;;;;;5095373;28;20293;-67
2022/11/06 01:11:17;;;;;;;9.17;2.93;;;-14.00;99.90;;;;;;5099786;28;20481;-67
2022/11/06 01:13:44;;;;;;;4.53;3.03;;;-15.90;99.90;;;;;;5095146;28;20182;-68
2022/11/06 01:16:13;;;;;;;4.97;2.37;;;-15.90;99.90;;;;;;5100394;28;20175;-69
2022/11/06 01:18:39;;;;;;;5.00;2.40;;;-16.40;99.90;;;;;;5102071;28;20177;-68
2022/11/06 01:21:11;;;;;;;5.83;2.93;;;-16.80;99.90;;;;;;5095363;28;20286;-73
2022/11/06 01:23:37;;;;;;;9.23;3.57;;;-16.60;99.90;;;;;;5091061;28;20640;-76
2022/11/06 01:26:05;;;;;;;5.93;3.37;;;-16.00;99.90;;;;;;5100711;28;20217;-74
2022/11/06 01:28:31;;;;;;;6.07;2.63;;;-15.70;99.90;;;;;;5089280;28;20201;-75
2022/11/06 01:31:08;;;;;;;6.57;2.67;;;-15.30;99.90;;;;;;5088560;28;20571;-76
2022/11/06 01:33:34;;;;;;;10.27;2.60;;;-16.50;99.90;;;;;;5096670;28;20186;-76
2022/11/06 01:36:00;;;;;;;7.77;2.60;;;-17.90;99.90;;;;;;5096138;28;20182;-76
2022/11/06 01:38:26;;;;;;;10.40;3.70;;;-16.30;99.90;;;;;;5101793;28;20192;-70
2022/11/06 01:40:52;;;;;;;4.50;2.60;;;-16.90;99.90;;;;;;5101506;28;20182;-73
2022/11/06 01:43:39;;;;;;;9.60;2.90;;;-17.20;99.90;;;;;;5101875;28;20608;-75
2022/11/06 01:46:05;;;;;;;10.23;3.10;;;-17.70;99.90;;;;;;5101769;28;20755;-73
2022/11/06 01:48:31;;;;;;;7.73;2.60;;;-15.20;99.90;;;;;;5094592;28;20213;-75
2022/11/06 01:50:57;;;;;;;8.00;3.17;;;-16.40;99.90;;;;;;5098841;28;20194;-70
2022/11/06 01:53:24;;;;;;;8.37;2.77;;;-15.80;99.90;;;;;;5095425;28;20500;-76
2022/11/06 01:55:54;;;;;;;7.33;2.80;;;-13.60;99.90;;;;;;5100756;28;20325;-69
2022/11/06 01:58:21;;;;;;;8.83;2.40;;;-15.20;99.90;;;;;;5100975;28;20178;-73
2022/11/06 02:00:48;;;;;;;6.63;2.30;;;-14.90;99.90;;;;;;5100820;28;20592;-74
2022/11/06 02:03:14;;;;;;;6.20;2.23;;;-12.30;99.90;;;;;;5101909;28;20705;-75
2022/11/06 02:05:41;;;;;;;4.27;2.30;;;-15.90;99.90;;;;;;5100425;28;20181;-72
2022/11/06 02:08:10;;;;;;;5.97;2.27;;;-14.10;99.90;;;;;;5101227;28;20236;-73
2022/11/06 02:10:36;;;;;;;5.43;2.13;;;-11.90;99.90;;;;;;5096525;28;20257;-73
2022/11/06 02:13:17;;;;;;;3.63;2.37;;;-12.00;99.90;;;;;;5094652;28;20182;-71
2022/11/06 02:15:54;;;;;;;6.03;2.40;;;-12.90;99.90;;;;;;5089447;28;20605;-69
2022/11/06 02:18:32;;;;;;;3.80;2.10;;;-12.70;99.90;;;;;;5091542;28;20800;-74
2022/11/06 02:21:17;;;;;;;5.20;2.53;;;-12.50;99.90;;;;;;5088451;28;20597;-72
2022/11/06 02:24:19;;;;;;;5.53;2.53;;;-12.60;99.90;;;;;;5093107;28;20170;-74
2022/11/06 02:26:55;;;;;;;6.37;1.97;;;-13.80;99.90;;;;;;5089441;28;20686;-73
2022/11/06 02:29:30;;;;;;;7.30;2.83;;;-13.00;99.90;;;;;;5091610;28;20174;-72
2022/11/06 02:32:02;;;;;;;7.87;3.23;;;-12.80;99.90;;;;;;5091306;28;20185;-74
2022/11/06 02:34:29;;;;;;;6.63;2.83;;;-13.30;99.90;;;;;;5087398;28;20607;-73
2022/11/06 02:37:20;;;;;;;2.77;2.33;;;-17.60;99.90;;;;;;5090216;28;20269;-74
2022/11/06 02:39:48;;;;;;;9.33;3.00;;;-16.80;99.90;;;;;;5094450;28;20208;-74
2022/11/06 02:42:17;;;;;;;8.57;2.37;;;-16.80;99.90;;;;;;5097253;28;20174;-75
2022/11/06 02:44:45;;;;;;;12.70;3.37;;;-17.00;99.90;;;;;;5092789;28;20197;-75
2022/11/06 02:47:13;;;;;;;9.43;2.90;;;-15.60;99.90;;;;;;5090502;28;20230;-74
2022/11/06 02:49:46;;;;;;;4.63;1.93;;;-15.20;99.90;;;;;;5081140;28;20582;-72
2022/11/06 02:52:22;;;;;;;12.50;3.07;;;-15.10;99.90;;;;;;5094372;28;20174;-72
2022/11/06 02:55:04;;;;;;;7.47;2.07;;;-15.70;99.90;;;;;;5097217;28;20193;-72
2022/11/06 02:57:35;;;;;;;6.83;3.07;;;-15.90;99.90;;;;;;5097249;28;20277;-74
2022/11/06 03:00:11;;;;;;;4.70;2.10;;;-15.70;99.90;;;;;;5094115;28;20265;-74
2022/11/06 03:02:42;;;;;;;7.83;2.53;;;-15.90;99.90;;;;;;5096142;28;20207;-72
2022/11/06 03:05:23;;;;;;;5.93;2.40;;;-15.30;99.90;;;;;;5085118;28;20194;-72
2022/11/06 03:08:13;;;;;;;4.70;2.27;;;-15.30;99.90;;;;;;5097655;28;20490;-71
2022/11/06 03:10:51;;;;;;;10.13;2.60;;;-15.40;99.90;;;;;;5095812;28;20268;-68
2022/11/06 03:13:48;;;;;;;2.67;1.77;;;-15.20;99.90;;;;;;5090273;28;20196;-71
2022/11/06 03:16:38;;;;;;;3.20;2.27;;;-15.10;99.90;;;;;;5090787;28;20244;-68
2022/11/06 03:19:19;;;;;;;5.97;2.80;;;-15.40;99.90;;;;;;5079041;28;20262;-71
2022/11/06 03:22:08;;;;;;;2.53;1.57;;;-15.10;99.90;;;;;;5084482;28;20227;-69
2022/11/06 03:24:56;;;;;;;16.27;3.27;;;-15.60;99.90;;;;;;5088725;28;20261;-70
2022/11/06 03:27:31;;;;;;;3.40;2.00;;;-15.90;99.90;;;;;;5090457;28;20210;-69
2022/11/06 03:30:03;;;;;;;7.07;3.00;;;-14.70;99.90;;;;;;5096414;28;20173;-68
2022/11/06 03:32:42;;;;;;;7.30;2.03;;;-14.30;99.90;;;;;;5094606;28;20186;-72
2022/11/06 03:35:28;;;;;;;9.93;2.53;;;-13.50;99.90;;;;;;5091131;28;20183;-71
2022/11/06 03:38:11;;;;;;;7.03;2.47;;;-14.10;99.90;;;;;;5087127;28;20288;-71
2022/11/06 03:40:43;;;;;;;7.53;2.70;;;-14.40;99.90;;;;;;5087465;28;20585;-69
2022/11/06 03:43:13;;;;;;;9.87;2.07;;;-14.30;99.90;;;;;;5093440;28;20304;-72
2022/11/06 03:45:42;;;;;;;3.67;2.20;;;-14.50;99.90;;;;;;5096954;28;20175;-67
2022/11/06 03:48:18;;;;;;;3.93;2.13;;;-14.10;99.90;;;;;;5095983;28;20485;-71
2022/11/06 03:50:47;;;;;;;6.53;1.97;;;-14.10;99.90;;;;;;5096676;28;20166;-68
2022/11/06 03:53:20;;;;;;;4.83;1.83;;;-14.40;99.90;;;;;;5095075;28;20182;-71
2022/11/06 03:56:02;;;;;;;5.87;2.27;;;-13.80;99.90;;;;;;5091714;28;20180;-71
2022/11/06 03:58:36;;;;;;;10.20;2.70;;;-13.70;99.90;;;;;;5084579;28;20182;-73
2022/11/06 04:01:05;;;;;;;6.67;2.23;;;-13.80;99.90;;;;;;5085977;28;20197;-71
2022/11/06 04:03:40;;;;;;;5.13;1.80;;;-14.10;99.90;;;;;;5084101;28;20218;-73
2022/11/06 04:06:24;;;;;;;9.57;2.60;;;-14.70;99.90;;;;;;5087230;28;20174;-73
2022/11/06 04:14:26;;;;;;;3.20;1.80;;;-13.00;99.90;;;;;;5084444;28;20173;-69
2022/11/06 04:16:58;;;;;;;2.20;1.90;;;-12.80;99.90;;;;;;5090607;28;20178;-70
2022/11/06 04:19:24;;;;;;;4.00;2.30;;;-10.50;99.90;;;;;;5091332;28;20416;-70
2022/11/06 04:22:08;;;;;;;6.07;2.50;;;-12.20;99.90;;;;;;5088752;28;20475;-71
2022/11/06 04:27:36;;;;;;;4.83;2.93;;;-13.70;99.90;;;;;;5093438;28;20255;-67
2022/11/06 04:30:14;;;;;;;6.00;2.23;;;-14.60;99.90;;;;;;5089966;28;20174;-74
2022/11/06 04:32:53;;;;;;;3.03;2.30;;;-12.80;99.90;;;;;;5091989;28;20265;-68
2022/11/06 04:35:22;;;;;;;9.20;3.00;;;-13.00;99.90;;;;;;5077896;28;20183;-68
2022/11/06 04:38:01;;;;;;;3.53;2.70;;;-12.30;99.90;;;;;;5090135;28;20190;-69
2022/11/06 04:40:56;;;;;;;6.73;2.47;;;-12.40;99.90;;;;;;5093543;28;20193;-70
2022/11/06 04:44:02;;;;;;;10.00;2.53;;;-12.30;99.90;;;;;;5095659;28;20181;-71
2022/11/06 04:46:44;;;;;;;4.67;1.97;;;-11.90;99.90;;;;;;5089340;28;20259;-68
2022/11/06 04:49:12;;;;;;;7.47;3.20;;;-11.60;99.90;;;;;;5095840;28;20197;-69
2022/11/06 04:51:39;;;;;;;5.53;1.80;;;-13.80;99.90;;;;;;5076675;28;20171;-68
2022/11/06 04:54:07;;;;;;;7.53;2.60;;;-13.80;99.90;;;;;;5092175;28;20185;-70
2022/11/06 04:56:35;;;;;;;8.77;2.87;;;-12.30;99.90;;;;;;5094916;28;20205;-68
2022/11/06 04:59:02;;;;;;;6.57;2.60;;;-12.60;99.90;;;;;;5094865;28;20238;-73
2022/11/06 05:01:28;;;;;;;4.37;2.73;;;-12.70;99.90;;;;;;5093851;28;20183;-73
2022/11/06 05:03:54;;;;;;;13.77;3.00;;;-12.50;99.90;;;;;;5088520;28;20205;-73
2022/11/06 05:06:19;;;;;;;7.63;2.83;;;-11.90;99.90;;;;;;5094770;28;20181;-73
2022/11/06 05:08:45;;;;;;;4.97;2.23;;;-11.30;99.90;;;;;;5083689;28;20237;-69
2022/11/06 05:11:11;;;;;;;2.77;2.30;;;-12.60;99.90;;;;;;5083765;28;20189;-70
2022/11/06 05:13:37;;;;;;;5.90;2.73;;;-13.90;99.90;;;;;;5089404;28;20182;-68
2022/11/06 05:16:03;;;;;;;6.17;3.00;;;-14.00;99.90;;;;;;5089265;28;20181;-72
2022/11/06 05:18:29;;;;;;;10.47;3.20;;;-13.90;99.90;;;;;;5095552;28;20268;-72
2022/11/06 05:23:46;;;;;;;8.63;3.47;;;-16.90;99.90;;;;;;5089246;28;20309;-72
2022/11/06 05:26:12;;;;;;;6.73;3.00;;;-18.60;99.90;;;;;;5090225;28;20277;-68
2022/11/06 05:28:37;;;;;;;8.70;3.87;;;-18.40;99.90;;;;;;5092181;28;20216;-69
2022/11/06 05:31:03;;;;;;;8.63;3.27;;;-17.00;99.90;;;;;;5084785;28;20193;-69
2022/11/06 05:33:29;;;;;;;4.27;2.57;;;-16.60;99.90;;;;;;5094416;28;20273;-73
2022/11/06 05:35:55;;;;;;;2.50;2.30;;;-17.50;99.90;;;;;;5095064;28;20253;-71
2022/11/06 05:38:21;;;;;;;4.07;2.30;;;-16.10;99.90;;;;;;5093254;28;20185;-70
2022/11/06 05:40:47;;;;;;;6.03;2.80;;;-13.70;99.90;;;;;;5095787;28;20569;-69
2022/11/06 05:43:12;;;;;;;7.80;2.63;;;-14.80;99.90;;;;;;5095444;28;20188;-69
2022/11/06 05:45:38;;;;;;;14.27;3.27;;;-15.00;99.90;;;;;;5094817;28;20600;-70
2022/11/06 05:48:04;;;;;;;3.20;2.27;;;-14.70;99.90;;;;;;5086507;28;20241;-68
2022/11/06 05:50:30;;;;;;;5.20;2.63;;;-16.70;99.90;;;;;;5084021;28;20194;-70
2022/11/06 05:52:56;;;;;;;4.13;2.63;;;-14.70;99.90;;;;;;5084711;28;20179;-71
2022/11/06 05:55:21;;;;;;;10.20;3.17;;;-16.80;99.90;;;;;;5090757;28;20203;-68
2022/11/06 05:57:47;;;;;;;6.97;2.33;;;-18.20;99.90;;;;;;5091297;28;20204;-68
2022/11/06 06:00:13;;;;;;;7.20;2.57;;;-18.90;99.90;;;;;;5099387;28;20177;-68
2022/11/06 06:02:39;;;;;;;10.10;3.70;;;-17.30;99.90;;;;;;5093276;28;20201;-69
2022/11/06 06:05:05;;;;;;;7.67;2.67;;;-17.00;99.90;;;;;;5091853;28;20569;-70
2022/11/06 06:07:32;;;;;;;4.37;2.33;;;-16.00;99.90;;;;;;5090067;28;20211;-70
2022/11/06 06:09:57;;;;;;;8.67;2.07;;;-16.70;99.90;;;;;;5094737;28;20189;-69
2022/11/06 06:12:25;;;;;;;7.57;2.93;;;-16.40;99.90;;;;;;5087722;28;20262;-71
2022/11/06 06:14:54;;;;;;;11.47;2.30;;;-13.70;99.90;;;;;;5096949;28;20184;-71
2022/11/06 06:17:20;;;;;;;6.20;2.47;;;-12.90;99.90;;;;;;5095826;28;20219;-68
2022/11/06 06:19:47;;;;;;;6.37;2.80;;;-14.80;99.90;;;;;;5094996;28;20628;-68
2022/11/06 06:22:13;;;;;;;3.37;2.03;;;-17.80;99.90;;;;;;5085725;28;20187;-70
2022/11/06 06:24:39;;;;;;;3.60;2.50;;;-20.70;99.90;;;;;;5086548;28;20195;-70
2022/11/06 06:27:06;;;;;;;3.97;2.00;;;-18.50;99.90;;;;;;5094079;28;20211;-68
2022/11/06 06:29:31;;;;;;;4.80;2.37;;;-15.20;99.90;;;;;;5097068;28;20186;-68
2022/11/06 06:31:57;;;;;;;6.03;2.30;;;-13.60;99.90;;;;;;5098579;28;20190;-69
2022/11/06 06:34:23;;;;;;;7.37;2.50;;;-14.50;99.90;;;;;;5093361;28;20197;-67
2022/11/06 06:36:52;;;;;;;6.17;2.10;;;-14.20;99.90;;;;;;5098422;28;20201;-70
2022/11/06 06:39:19;;;;;;;9.83;3.00;;;-14.20;99.90;;;;;;5088405;28;20183;-70
2022/11/06 06:41:46;;;;;;;9.77;2.97;;;-13.20;99.90;;;;;;5091847;28;20189;-73
2022/11/06 06:44:12;;;;;;;7.33;1.83;;;-17.00;99.90;;;;;;5098331;28;20174;-71
2022/11/06 06:46:38;;;;;;;2.70;1.97;;;-16.10;99.90;;;;;;5091979;28;20572;-66
2022/11/06 06:49:03;;;;;;;4.67;2.27;;;-15.40;99.90;;;;;;5090071;28;20215;-71
2022/11/06 06:51:29;;;;;;;4.73;2.47;;;-16.10;99.90;;;;;;5089862;28;20177;-71
2022/11/06 06:53:55;;;;;;;2.60;1.43;;;-14.80;99.90;;;;;;5092538;28;20207;-72
2022/11/06 06:56:21;;;;;;;7.27;2.07;;;-15.10;99.90;;;;;;5087002;28;20187;-66
2022/11/06 06:58:46;;;;;;;7.50;2.40;;;-16.10;99.90;;;;;;5083257;28;20195;-72
2022/11/06 07:01:13;;;;;;;8.70;2.23;;;-16.80;99.90;;;;;;5095107;28;20186;-71
2022/11/06 07:03:39;;;;;;;5.93;2.07;;;-16.30;99.90;;;;;;5093590;28;20214;-71
2022/11/06 07:06:05;;;;;;;7.27;3.17;;;-16.40;99.90;;;;;;5097930;28;20503;-67
2022/11/06 07:08:32;;;;;;;6.50;2.17;;;-17.80;99.90;;;;;;5092560;28;20347;-69
2022/11/06 07:11:07;;;;;;;5.53;2.03;;;-15.60;99.90;;;;;;5093501;28;20182;-70
2022/11/06 07:13:33;;;;;;;9.03;2.87;;;-17.10;99.90;;;;;;5093955;28;20186;-68
2022/11/06 07:16:05;;;;;;;4.93;2.07;;;-17.50;99.90;;;;;;5095055;28;20190;-70
2022/11/06 07:18:31;;;;;;;7.53;2.33;;;-14.80;99.90;;;;;;5089041;28;20186;-72
2022/11/06 07:20:56;;;;;;;9.43;2.80;;;-15.60;99.90;;;;;;5094525;28;20548;-68
2022/11/06 07:23:22;;;;;;;7.63;1.97;;;-12.90;99.90;;;;;;5097322;28;20672;-71
2022/11/06 07:25:53;;;;;;;6.30;2.27;;;-14.50;99.90;;;;;;5095893;28;20182;-75
2022/11/06 07:28:19;;;;;;;9.43;2.37;;;-13.80;99.90;;;;;;5097583;28;20261;-75
2022/11/06 07:30:45;;;;;;;5.97;1.80;;;-13.20;99.90;;;;;;5096798;28;20633;-75
2022/11/06 07:33:11;;;;;;;4.23;2.07;;;-11.50;99.90;;;;;;5097263;28;20182;-71
2022/11/06 07:35:37;;;;;;;4.67;1.87;;;-14.70;99.90;;;;;;5089586;28;20183;-72
2022/11/06 07:38:06;;;;;;;4.83;2.20;;;-15.40;99.90;;;;;;5091987;28;20487;-73
2022/11/06 07:40:33;;;;;;;4.63;1.77;;;-16.00;99.90;;;;;;5084784;28;20371;-69
2022/11/06 07:43:06;;;;;;;6.77;2.13;;;-13.60;99.90;;;;;;5086765;28;20194;-73
2022/11/06 07:45:32;;;;;;;4.63;1.70;;;-14.50;99.90;;;;;;5086614;28;20546;-73
2022/11/06 07:47:58;;;;;;;8.40;2.13;;;-17.90;99.90;;;;;;5093788;28;20308;-73
2022/11/06 07:50:25;;;;;;;7.57;1.90;;;-16.90;99.90;;;;;;5095757;28;20271;-73
2022/11/06 07:52:50;;;;;;;12.63;1.87;;;-15.10;99.90;;;;;;5087643;28;20455;-71
2022/11/06 07:55:16;;;;;;;6.73;1.70;;;-13.10;99.90;;;;;;5090569;28;20185;-73
2022/11/06 07:57:42;;;;;;;5.10;1.20;;;-12.70;99.90;;;;;;5087397;28;20260;-68
2022/11/06 08:00:08;;;;;;;4.57;2.00;;;-18.20;99.90;;;;;;5092150;28;20227;-65
2022/11/06 08:02:34;;;;;;;3.97;2.63;;;-15.70;99.90;;;;;;5084701;28;20244;-67
2022/11/06 08:05:00;;;;;;;4.97;2.90;;;-16.00;99.90;;;;;;5090920;28;20213;-70
2022/11/06 08:07:25;;;;;;;5.40;1.87;;;-15.00;99.90;;;;;;5088161;28;20203;-68
2022/11/06 08:09:51;;;;;;;4.90;2.60;;;-17.40;99.90;;;;;;5086711;28;20594;-68
2022/11/06 08:12:17;;;;;;;7.10;2.67;;;-17.50;99.90;;;;;;5089070;28;20196;-68
2022/11/06 08:14:42;;;;;;;12.60;2.47;;;-15.70;99.90;;;;;;5091428;28;20179;-72
2022/11/06 08:17:08;;;;;;;11.90;2.60;;;-14.30;99.90;;;;;;5087139;28;20206;-68
2022/11/06 08:19:34;;;;;;;5.97;2.10;;;-14.50;99.90;;;;;;5086278;28;20601;-71
2022/11/06 08:22:00;;;;;;;5.63;2.30;;;-13.20;99.90;;;;;;5089702;28;20171;-68
2022/11/06 08:24:25;;;;;;;5.20;1.60;;;-13.50;99.90;;;;;;5091822;28;20175;-70
2022/11/06 08:26:51;;;;;;;4.57;2.40;;;-14.80;99.90;;;;;;5093494;28;20174;-73
2022/11/06 08:29:17;;;;;;;4.03;1.70;;;-14.40;99.90;;;;;;5084747;28;20265;-75
2022/11/06 08:31:42;;;;;;;6.10;1.73;;;-13.90;99.90;;;;;;5094341;28;20258;-73
2022/11/06 08:34:08;;;;;;;8.37;2.20;;;-14.10;99.90;;;;;;5091699;28;20179;-71
2022/11/06 08:36:43;;;;;;;8.90;2.37;;;-13.10;99.90;;;;;;5093725;28;20175;-67
2022/11/06 08:39:10;;;;;;;7.87;2.50;;;-16.60;99.90;;;;;;5084696;28;20221;-68
2022/11/06 08:41:37;;;;;;;6.77;3.47;;;-17.10;99.90;;;;;;5094507;28;20178;-69
2022/11/06 08:44:02;;;;;;;4.27;2.63;;;-17.80;99.90;;;;;;5091960;28;20220;-74
2022/11/06 08:46:28;;;;;;;5.53;1.60;;;-16.00;99.90;;;;;;5091950;28;20518;-71
2022/11/06 08:48:54;;;;;;;6.67;2.17;;;-15.50;99.90;;;;;;5088054;28;20671;-69
2022/11/06 08:51:20;;;;;;;3.90;1.60;;;-15.20;99.90;;;;;;5086121;28;20198;-71
2022/11/06 08:53:45;;;;;;;3.30;1.70;;;-14.60;99.90;;;;;;5085347;28;20265;-68
2022/11/06 08:56:14;;;;;;;8.57;2.10;;;-14.20;99.90;;;;;;5088180;28;20465;-72
2022/11/06 08:58:39;;;;;;;6.13;2.37;;;-15.40;99.90;;;;;;5095724;28;20183;-69
2022/11/06 09:01:05;;;;;;;4.03;2.43;;;-13.80;99.90;;;;;;5094851;28;20186;-68
2022/11/06 09:03:31;;;;;;;6.60;2.00;;;-14.50;99.90;;;;;;5087084;28;20214;-72
2022/11/06 09:05:57;;;;;;;5.90;2.13;;;-13.40;99.90;;;;;;5093450;28;20280;-70
2022/11/06 09:08:23;;;;;;;7.97;2.60;;;-15.40;99.90;;;;;;5090504;28;20199;-66
2022/11/06 09:10:50;;;;;;;5.10;2.03;;;-14.30;99.90;;;;;;5087738;28;20612;-71
2022/11/06 09:13:15;;;;;;;4.57;2.20;;;-14.40;99.90;;;;;;5091130;28;20217;-69
2022/11/06 09:15:43;;;;;;;14.07;2.60;;;-13.30;99.90;;;;;;5089918;28;20198;-74
2022/11/06 09:18:10;;;;;;;5.33;2.03;;;-13.70;99.90;;;;;;5087797;28;20174;-70
2022/11/06 09:20:36;;;;;;;4.10;2.13;;;-12.80;99.90;;;;;;5086591;28;20202;-70
2022/11/06 09:23:04;;;;;;;8.60;2.77;;;-13.00;99.90;;;;;;5085907;28;20236;-72
2022/11/06 09:25:31;;;;;;;3.60;2.23;;;-14.20;99.90;;;;;;5081908;28;20189;-71
2022/11/06 09:27:57;;;;;;;7.30;2.13;;;-14.80;99.90;;;;;;5088096;28;20668;-69
2022/11/06 09:30:24;;;;;;;2.47;1.97;;;-12.60;99.90;;;;;;5091396;28;20257;-69
2022/11/06 09:32:59;;;;;;;4.97;2.00;;;-13.20;99.90;;;;;;5097721;28;20175;-68
2022/11/06 09:35:26;;;;;;;8.03;1.97;;;-12.70;99.90;;;;;;5097534;28;20562;-71
2022/11/06 09:37:53;;;;;;;4.60;2.13;;;-13.50;99.90;;;;;;5091427;28;20175;-66
2022/11/06 09:40:42;;;;;;;6.77;1.87;;;-15.60;99.90;;;;;;5096126;28;20681;-67
2022/11/06 09:43:23;;;;;;;4.00;2.37;;;-18.50;99.90;;;;;;5084046;28;20624;-66
2022/11/06 09:45:50;;;;;;;5.53;2.17;;;-13.90;99.90;;;;;;5098206;28;20190;-69
2022/11/06 09:48:31;;;;;;;6.03;1.90;;;-14.30;99.90;;;;;;5091059;28;20199;-68
2022/11/06 09:51:20;;;;;;;3.37;2.10;;;-13.60;99.90;;;;;;5096300;28;20183;-67
2022/11/06 09:54:10;;;;;;;6.07;2.23;;;-18.70;99.90;;;;;;5098854;28;20606;-67
2022/11/06 09:56:39;;;;;;;3.80;2.37;;;-15.10;99.90;;;;;;5088148;28;20186;-71
2022/11/06 09:59:09;;;;;;;3.17;2.20;;;-13.40;99.90;;;;;;5089414;28;20522;-67
2022/11/06 10:01:46;;;;;;;5.17;2.27;;;-17.90;99.90;;;;;;5093637;28;20186;-69
2022/11/06 10:04:29;;;;;;;7.13;1.93;;;-16.90;99.90;;;;;;5097522;28;20218;-67
2022/11/06 10:06:55;;;;;;;6.27;2.23;;;-14.50;99.90;;;;;;5097213;28;20190;-71
2022/11/06 10:09:21;;;;;;;11.83;3.10;;;-14.50;99.90;;;;;;5086488;28;20186;-68
2022/11/06 10:12:18;;;;;;;6.83;1.80;;;-10.30;99.90;;;;;;5094402;28;20266;-69
2022/11/06 10:14:59;;;;;;;7.67;2.33;;;-12.30;99.90;;;;;;5093224;28;20175;-69
2022/11/06 10:18:32;;;;;;;6.10;2.63;;;-12.90;99.90;;;;;;5092018;28;20250;-68
2022/11/06 10:21:09;;;;;;;8.80;2.07;;;-10.10;99.90;;;;;;4974554;28;20675;-69
2022/11/06 10:23:35;;;;;;;4.43;2.20;;;-13.50;99.90;;;;;;5089088;28;20179;-68
2022/11/06 10:26:12;;;;;;;11.13;3.60;;;-10.00;99.90;;;;;;5098311;28;20175;-67
2022/11/06 10:28:58;;;;;;;9.23;2.37;;;-10.90;99.90;;;;;;5085857;28;20218;-74
2022/11/06 10:31:35;;;;;;;4.80;1.77;;;-11.30;99.90;;;;;;5092984;28;20271;-67
2022/11/06 10:34:13;;;;;;;4.03;2.40;;;-12.20;99.90;;;;;;5094921;28;20186;-72
2022/11/06 10:37:05;;;;;;;4.93;1.83;;;-13.50;99.90;;;;;;5098563;28;20179;-67
2022/11/06 10:39:33;;;;;;;4.47;2.30;;;-10.70;99.90;;;;;;5093207;28;20507;-70
2022/11/06 10:42:12;;;;;;;8.40;3.03;;;-13.90;99.90;;;;;;5096134;28;20613;-66
2022/11/06 10:44:42;;;;;;;4.57;1.77;;;-14.20;99.90;;;;;;5086530;28;20262;-66
2022/11/06 10:47:23;;;;;;;4.57;1.73;;;-15.10;99.90;;;;;;5087829;28;20196;-67
2022/11/06 10:49:51;;;;;;;2.93;1.50;;;-13.20;99.90;;;;;;5097594;28;20178;-68
2022/11/06 10:52:43;;;;;;;6.33;2.70;;;-13.50;99.90;;;;;;5094003;28;20248;-67
2022/11/06 10:55:36;;;;;;;5.03;1.50;;;-12.40;99.90;;;;;;5085516;28;20191;-70
2022/11/06 10:58:16;;;;;;;3.10;1.77;;;-15.80;99.90;;;;;;5096735;28;20216;-69
2022/11/06 11:00:41;;;;;;;6.33;2.47;;;-18.30;99.90;;;;;;5087768;28;20235;-69
2022/11/06 11:03:27;;;;;;;5.60;2.10;;;-15.30;99.90;;;;;;5085701;28;20577;-68
2022/11/06 11:05:54;;;;;;;10.27;2.83;;;-15.20;99.90;;;;;;5091914;28;20175;-70
2022/11/06 11:08:41;;;;;;;10.10;2.57;;;-19.40;99.90;;;;;;5093554;28;20195;-69
2022/11/06 11:11:12;;;;;;;5.20;1.80;;;-15.90;99.90;;;;;;5093335;28;20462;-70
2022/11/06 11:14:09;;;;;;;2.53;1.83;;;-14.50;99.90;;;;;;5092157;28;20507;-68
2022/11/06 11:16:38;;;;;;;9.03;2.43;;;-13.30;99.90;;;;;;5086164;28;20197;-68
2022/11/06 11:19:22;;;;;;;4.37;2.00;;;-14.70;99.90;;;;;;5093817;28;20179;-70
2022/11/06 11:22:20;;;;;;;8.50;1.60;;;-15.50;99.90;;;;;;5089756;28;20206;-73
2022/11/06 11:25:07;;;;;;;4.60;2.30;;;-15.80;99.90;;;;;;5087246;28;20201;-67
2022/11/06 11:27:53;;;;;;;11.40;2.13;;;-13.40;99.90;;;;;;5096918;28;20284;-71
2022/11/06 11:30:22;;;;;;;3.37;1.50;;;-12.40;99.90;;;;;;5092974;28;20186;-68
2022/11/06 11:32:48;;;;;;;4.30;2.13;;;-13.90;99.90;;;;;;5097481;28;20238;-75
2022/11/06 11:35:19;;;;;;;5.30;2.30;;;-12.60;99.90;;;;;;5097209;28;20186;-74
2022/11/06 11:37:45;;;;;;;7.37;2.13;;;-14.50;99.90;;;;;;5096970;28;20582;-70
2022/11/06 11:40:34;;;;;;;1.97;1.53;;;-11.90;99.90;;;;;;5095920;28;20592;-72
2022/11/06 11:43:19;;;;;;;4.03;1.83;;;-11.40;99.90;;;;;;5087864;28;20178;-68
2022/11/06 11:46:11;;;;;;;3.87;1.73;;;-13.10;99.90;;;;;;5085512;28;20182;-68
2022/11/06 11:48:57;;;;;;;7.57;2.33;;;-15.50;99.90;;;;;;5091029;28;20205;-67
2022/11/06 11:51:30;;;;;;;6.70;1.33;;;-13.30;99.90;;;;;;5082016;28;20188;-68
2022/11/06 11:54:12;;;;;;;10.03;2.83;;;-15.40;99.90;;;;;;5094934;28;20182;-68
2022/11/06 11:56:44;;;;;;;6.53;2.13;;;-13.90;99.90;;;;;;5089361;28;20227;-66
2022/11/06 11:59:19;;;;;;;6.03;2.07;;;-15.40;99.90;;;;;;5090604;28;20192;-71
2022/11/06 12:01:47;;;;;;;8.27;2.77;;;-10.40;99.90;;;;;;5084180;28;20280;-75
2022/11/06 12:04:17;;;;;;;11.23;2.37;;;-12.60;99.90;;;;;;5089680;28;20202;-71
2022/11/06 12:07:00;;;;;;;4.30;1.77;;;-13.00;99.90;;;;;;5085345;28;20254;-71
2022/11/06 12:09:28;;;;;;;3.23;2.23;;;-16.60;99.90;;;;;;5095486;28;20239;-73
2022/11/06 12:11:57;;;;;;;6.20;2.20;;;-14.80;99.90;;;;;;5094233;28;20185;-75
2022/11/06 12:14:33;;;;;;;4.47;1.60;;;-15.20;99.90;;;;;;5095075;28;20178;-75
2022/11/06 12:17:16;;;;;;;6.47;2.30;;;-14.70;99.90;;;;;;5094342;28;20178;-71
2022/11/06 12:19:47;;;;;;;7.50;2.23;;;-13.40;99.90;;;;;;5087380;28;20175;-73
2022/11/06 12:22:26;;;;;;;7.20;2.13;;;-13.40;99.90;;;;;;5091084;28;20189;-73
2022/11/06 12:24:57;;;;;;;5.23;1.53;;;-12.70;99.90;;;;;;5096467;28;20247;-74
2022/11/06 12:27:50;;;;;;;8.07;2.50;;;-14.00;99.90;;;;;;5105276;28;20206;-73
2022/11/06 12:30:18;;;;;;;9.70;2.70;;;-11.60;99.90;;;;;;5093026;28;20263;-75
2022/11/06 12:32:56;;;;;;;6.07;2.33;;;-12.90;99.90;;;;;;5093104;28;20186;-72
2022/11/06 12:35:27;;;;;;;9.50;1.80;;;-11.10;99.90;;;;;;5086860;28;20174;-68
2022/11/06 12:38:09;;;;;;;5.00;2.60;;;-13.20;99.90;;;;;;5096020;28;20215;-66
2022/11/06 12:40:40;;;;;;;9.93;2.37;;;-11.90;99.90;;;;;;5093564;28;20171;-71
2022/11/06 12:43:16;;;;;;;6.93;2.73;;;-13.40;99.90;;;;;;5090646;28;20557;-70
2022/11/06 12:46:01;;;;;;;6.90;2.27;;;-12.50;99.90;;;;;;5084463;28;20185;-68
2022/11/06 12:48:59;;;;;;;5.60;2.60;;;-11.10;99.90;;;;;;5088980;28;20206;-70
2022/11/06 12:51:49;;;;;;;9.80;2.10;;;-10.90;99.90;;;;;;5089893;28;20239;-69
2022/11/06 12:54:24;;;;;;;7.27;2.53;;;-12.70;99.90;;;;;;5084584;28;20182;-67
2022/11/06 12:57:12;;;;;;;5.20;1.97;;;-10.20;99.90;;;;;;5091944;28;20205;-67
2022/11/06 12:59:59;;;;;;;7.90;2.20;;;-11.20;99.90;;;;;;5094743;28;20178;-66
2022/11/06 13:02:28;;;;;;;3.27;2.00;;;-12.40;99.90;;;;;;5083404;28;20204;-66
2022/11/06 13:05:18;;;;;;;4.13;2.30;;;-10.40;99.90;;;;;;5094258;28;20190;-68
2022/11/06 13:08:13;;;;;;;4.87;1.80;;;-11.30;99.90;;;;;;5094145;28;20205;-68
2022/11/06 13:11:13;;;;;;;4.77;2.63;;;-11.90;99.90;;;;;;5071873;28;20201;-67
2022/11/06 13:13:48;;;;;;;4.90;1.67;;;-11.50;99.90;;;;;;5091135;28;20178;-67
2022/11/06 13:16:56;;;;;;;3.50;1.90;;;-10.60;99.90;;;;;;5086414;28;20239;-66